CheckWX is a tool to help pilots better visualize weather data.  It is not intended as a substitute for an official pre-flight weather briefing.

08:17:15 UTC

SKAR METAR
El Eden Airport
Armenia, Colombia
Current

2 hours ago

SKAR 260600Z 00000KT 9999 SCT023 21/20 A3009
Observed
Jan-26 @ 06:00 UTC
Visibility
10,000+ meters
Flight Rules
VFR
Cloud Levels
  • Scattered at 2,300' AGL
Temperature
21°C / 70°F
Dewpoint
20°C / 68°F
Humidity
94%
Altimeter
30.09" Hg
Pressure
1018.92 hPa
Previous

3 hours ago

SKAR 260500Z 00000KT 9999 SCT023 22/21 A3011
Observed
Jan-26 @ 05:00 UTC
Visibility
10,000+ meters
Flight Rules
VFR
Cloud Levels
  • Scattered at 2,300' AGL
Temperature
22°C / 72°F
Dewpoint
21°C / 70°F
Humidity
94%
Altimeter
30.11" Hg
Pressure
1019.62 hPa
Previous

4 hours ago

SKAR 260400Z 00000KT 9999 SCT023 22/21 A3010
Observed
Jan-26 @ 04:00 UTC
Visibility
10,000+ meters
Flight Rules
VFR
Cloud Levels
  • Scattered at 2,300' AGL
Temperature
22°C / 72°F
Dewpoint
21°C / 70°F
Humidity
94%
Altimeter
30.1" Hg
Pressure
1019.32 hPa